Hanover, Virginia
Current Conditions -  °F | °C
As of 2:54 PM on Thursday 23 Oct 2014 (Local Time) from KOFP Reporting Station
Broken Clouds Broken Clouds  
Wind Chill: 68°   Ceiling: 4900
Heat Index: 68°   Visibility: 10mi
Dew Point: 46°   Wind: 9mph
Humidity: 45%   Direction: 320°NW
Pressure: 29.88"   Gusts: 22mph
Location:  37.77°N, 77.37°W
Report Text: KOFP 231854Z AUTO 32008G19KT 290V020 10SM BKN049 20/08 A2988 RMK AO2 PK WND 29027/1835 SLP118 T02000078
Loading
Personal Weather Stations






























Interactive Weather Map
Tropical Storm Tracking
New forecast layout! Learn more

10-Day Weather Forecast

Advertisements
Track Severe Weather on mobile